Portsmouth, NH (03801)

12:28 PM EST on March 01, 2015 (GMT -0500)
Maplewood Avenue | Change Station
CLOSE
Current Station
Personal Weather Station
Location: Portsmouth, NH
Elevation: 60 ft
Nearby Weather Stations

Elev 60 ft 43.08 °N, 70.77 °W | Updated 9 seconds ago

Overcast
Overcast
28.8 °F
Feels Like 29 °F
N
2.0
Wind Variable Wind from SSW
Gusts 2.0 mph

Today
High -- | Low -- °F
--% Chance of Precip.
Yesterday
High -- | Low -- °F
Precip. -- in
6:19 AM 5:32 PM
Waxing Gibbous, 86% visible
Pressure 30.54 in
Visibility 10.0 miles
Clouds Mostly Cloudy 4200 ft
Mostly Cloudy 7000 ft
Overcast 25000 ft
Windchill 29 °F
Dew Point 13 °F
Humidity 52%
Rainfall 0.00 in
Snow Depth Not available.
UV 2 out of 12
Pollen .30 out of 12
Air Quality Not available.
Flu Activity Not available.
METAR KPSM 011658Z 12004KT 10SM BKN042 BKN070 OVC250 M05/M15 A3052 RMK AO2A PRESFR SLP341 T10501150

More Conditions Fewer Conditions

Pressure 30.54 in
Visibility 10.0 miles
Clouds Mostly Cloudy 4200 ft
Mostly Cloudy 7000 ft
Overcast 25000 ft
Windchill 29 °F
Dew Point 13 °F
Humidity 52%
Rainfall 0.00 in
Snow Depth Not available.
UV 2 out of 12
Pollen .30 out of 12
Air Quality Not available.
Flu Activity Not available.
METAR KPSM 011658Z 12004KT 10SM BKN042 BKN070 OVC250 M05/M15 A3052 RMK AO2A PRESFR SLP341 T10501150

More Conditions Fewer Conditions

10-Day Weather Forecast

Almanac

Astronomy

Mar. 01, 2015 Rise Set
Actual Time
Civil Twilight
Nautical Twilight
Astronomical Twilight
Moon
Length of Visible Light
Length of Day
Tomorrow will be .
, % of the Moon is Illuminated

Today's Extremes

State Highs State Lows

Community

WunderPhotos

Upload Photos

1,801,475 photos uploaded!

WunderBlogs® & News

Nearby

Air Quality

  Air Quality AQ Index Pollutant
Not available.

Snow Depth

Station Depth Elevation

Earthquake Activity

City Distance Mag. Time & Date
Minimum magnitude displayed is 2.5.

Coastal Water Temperatures

Place Temperature

Nearby Weather Stations